createdAt,value
2022-09-18T00:02:18.141Z,1.50
2022-09-18T00:04:44.440Z,1.60
2022-09-18T00:07:10.662Z,1.53
2022-09-18T00:09:37.345Z,1.40
2022-09-18T00:12:03.870Z,1.50
2022-09-18T00:14:30.103Z,1.53
2022-09-18T00:16:56.355Z,1.43
2022-09-18T00:19:22.597Z,2.77
2022-09-18T00:21:49.988Z,1.30
2022-09-18T00:24:18.979Z,1.40
2022-09-18T00:26:45.880Z,1.00
2022-09-18T00:29:13.295Z,1.10
2022-09-18T00:31:39.978Z,1.10
2022-09-18T00:34:08.541Z,1.20
2022-09-18T00:36:35.466Z,0.93
2022-09-18T00:39:02.953Z,1.10
2022-09-18T00:41:31.232Z,1.07
2022-09-18T00:44:16.383Z,0.90
2022-09-18T00:46:43.837Z,0.73
2022-09-18T00:49:10.094Z,1.00
2022-09-18T00:51:36.819Z,0.80
2022-09-18T00:54:10.988Z,0.93
2022-09-18T00:56:37.653Z,0.97
2022-09-18T00:59:07.081Z,0.90
2022-09-18T01:01:33.427Z,0.90
2022-09-18T01:03:59.756Z,0.80
2022-09-18T01:06:25.969Z,1.07
2022-09-18T01:09:00.061Z,0.70
2022-09-18T01:11:55.545Z,0.97
2022-09-18T01:14:31.651Z,0.80
2022-09-18T01:17:16.806Z,0.80
2022-09-18T01:20:06.480Z,0.70
2022-09-18T01:22:42.668Z,0.80
2022-09-18T01:25:20.876Z,0.60
2022-09-18T01:28:06.018Z,0.77
2022-09-18T01:30:32.641Z,0.60
2022-09-18T01:33:10.074Z,0.60
2022-09-18T01:35:42.245Z,0.77
2022-09-18T01:38:11.437Z,0.70
2022-09-18T01:40:44.513Z,0.83
2022-09-18T01:43:12.896Z,0.70
2022-09-18T01:45:43.201Z,0.60
2022-09-18T01:48:12.381Z,0.60
2022-09-18T01:50:41.405Z,0.60
2022-09-18T01:53:16.202Z,0.50
2022-09-18T01:55:45.438Z,0.50
2022-09-18T01:58:13.451Z,0.40
2022-09-18T02:00:43.337Z,0.70
2022-09-18T02:03:21.755Z,0.63
2022-09-18T02:05:49.803Z,0.60
2022-09-18T02:08:31.873Z,0.77
2022-09-18T02:11:01.028Z,0.70
2022-09-18T02:13:31.029Z,0.63
2022-09-18T02:16:00.726Z,0.80
2022-09-18T02:18:28.731Z,0.97
2022-09-18T02:20:56.167Z,0.70
2022-09-18T02:23:23.356Z,0.77
2022-09-18T02:25:52.056Z,0.80
2022-09-18T02:28:20.210Z,0.90
2022-09-18T02:30:46.506Z,0.70
2022-09-18T02:33:23.401Z,0.90
2022-09-18T02:35:53.327Z,0.90
2022-09-18T02:38:35.576Z,1.30
2022-09-18T02:41:07.408Z,1.40
2022-09-18T02:43:49.752Z,1.70
2022-09-18T02:46:19.093Z,1.50
2022-09-18T02:48:48.008Z,1.70
2022-09-18T02:51:21.256Z,1.70
2022-09-18T02:53:50.455Z,1.40
2022-09-18T02:56:19.600Z,1.80
2022-09-18T02:58:52.282Z,2.40
2022-09-18T03:01:20.559Z,1.93
2022-09-18T03:03:47.033Z,1.70
2022-09-18T03:06:13.350Z,1.90
2022-09-18T03:08:39.774Z,1.70
2022-09-18T03:11:06.049Z,2.00
2022-09-18T03:13:33.485Z,1.60
2022-09-18T03:15:59.788Z,2.30
2022-09-18T03:18:26.179Z,1.90
2022-09-18T03:20:52.424Z,2.73
2022-09-18T03:23:18.703Z,2.80
2022-09-18T03:25:45.099Z,2.10
2022-09-18T03:28:11.344Z,2.23
2022-09-18T03:30:37.654Z,2.00
2022-09-18T03:33:03.964Z,2.37
2022-09-18T03:35:30.243Z,2.40
2022-09-18T03:37:56.754Z,2.20
2022-09-18T03:40:23.197Z,3.00
2022-09-18T03:42:49.469Z,2.57
2022-09-18T03:45:15.785Z,2.60
2022-09-18T03:47:42.042Z,2.47
2022-09-18T03:50:08.451Z,2.97
2022-09-18T03:52:34.795Z,3.07
2022-09-18T03:55:01.027Z,2.67
2022-09-18T03:57:27.309Z,2.60
2022-09-18T03:59:53.932Z,2.43
2022-09-18T04:02:20.296Z,2.97
2022-09-18T04:04:46.529Z,3.10
2022-09-18T04:07:12.827Z,2.30
2022-09-18T04:09:39.911Z,3.17
2022-09-18T04:12:06.329Z,2.90
2022-09-18T04:14:32.542Z,2.90
2022-09-18T04:16:58.856Z,2.60
2022-09-18T04:19:25.094Z,3.27
2022-09-18T04:21:51.349Z,3.10
2022-09-18T04:24:17.555Z,3.30
2022-09-18T04:26:43.813Z,2.93
2022-09-18T04:29:10.115Z,3.40
2022-09-18T04:31:37.424Z,2.80
2022-09-18T04:34:03.750Z,2.83
2022-09-18T04:36:30.048Z,2.70
2022-09-18T04:38:56.273Z,2.43
2022-09-18T04:41:22.550Z,3.10
2022-09-18T04:43:48.766Z,2.40
2022-09-18T04:46:15.122Z,2.93
2022-09-18T04:48:41.419Z,2.77
2022-09-18T04:51:07.640Z,2.87
2022-09-18T04:53:35.372Z,2.10
2022-09-18T04:56:01.730Z,2.40
2022-09-18T04:58:27.950Z,2.20
2022-09-18T05:00:54.256Z,2.37
2022-09-18T05:03:22.552Z,2.27
2022-09-18T05:05:49.361Z,2.43
2022-09-18T05:08:15.580Z,2.50
2022-09-18T05:10:41.988Z,2.40
2022-09-18T05:13:08.869Z,2.13
2022-09-18T05:15:35.192Z,2.40
2022-09-18T05:18:02.324Z,2.10
2022-09-18T05:20:28.607Z,2.13
2022-09-18T05:22:55.021Z,2.37
2022-09-18T05:25:21.876Z,2.03
2022-09-18T05:27:54.358Z,2.00
2022-09-18T05:30:20.930Z,1.90
2022-09-18T05:33:00.750Z,1.73
2022-09-18T05:35:27.981Z,2.23
2022-09-18T05:37:54.645Z,1.83
2022-09-18T05:40:23.657Z,2.33
2022-09-18T05:42:50.514Z,2.27
2022-09-18T05:45:16.994Z,2.10
2022-09-18T05:47:44.350Z,1.83
2022-09-18T05:50:10.680Z,2.27
2022-09-18T05:52:36.902Z,1.90
2022-09-18T05:55:03.184Z,2.07
2022-09-18T05:57:29.415Z,2.37
2022-09-18T05:59:55.672Z,3.07
2022-09-18T06:02:22.008Z,2.00
2022-09-18T06:04:48.235Z,2.20
2022-09-18T06:07:16.164Z,2.00
2022-09-18T06:09:42.555Z,2.40
2022-09-18T06:12:08.775Z,2.50
2022-09-18T06:14:34.983Z,1.77
2022-09-18T06:17:01.310Z,2.03
2022-09-18T06:19:27.597Z,1.90
2022-09-18T06:21:53.873Z,1.90
2022-09-18T06:24:20.145Z,1.97
2022-09-18T06:26:48.204Z,1.90
2022-09-18T06:29:14.445Z,1.87
2022-09-18T06:31:40.719Z,1.83
2022-09-18T06:34:07.087Z,1.80
2022-09-18T06:36:33.304Z,2.30
2022-09-18T06:38:59.531Z,2.03
2022-09-18T06:41:25.742Z,2.03
2022-09-18T06:43:51.950Z,2.20
2022-09-18T06:46:18.495Z,1.70
2022-09-18T06:48:44.796Z,2.07
2022-09-18T06:51:11.047Z,1.93
2022-09-18T06:53:37.305Z,1.53
2022-09-18T06:56:03.648Z,2.00
2022-09-18T06:58:29.912Z,1.90
2022-09-18T07:00:58.798Z,2.27
2022-09-18T07:03:25.214Z,1.80
2022-09-18T07:05:51.547Z,1.97
2022-09-18T07:08:17.760Z,1.90
2022-09-18T07:10:44.491Z,1.70
2022-09-18T07:13:10.739Z,1.73
2022-09-18T07:15:37.099Z,2.10
2022-09-18T07:18:04.222Z,1.67
2022-09-18T07:20:30.575Z,1.80
2022-09-18T07:22:58.428Z,1.67
2022-09-18T07:25:25.627Z,1.70
2022-09-18T07:27:52.209Z,1.57
2022-09-18T07:30:18.776Z,1.60
2022-09-18T07:32:45.139Z,1.60
2022-09-18T07:35:11.383Z,1.70
2022-09-18T07:37:38.103Z,1.80
2022-09-18T07:40:05.169Z,1.40
2022-09-18T07:42:31.484Z,1.73
2022-09-18T07:44:57.713Z,1.60
2022-09-18T07:47:25.281Z,1.30
2022-09-18T07:49:51.507Z,1.60
2022-09-18T07:52:17.989Z,1.60
2022-09-18T07:54:44.624Z,1.70
2022-09-18T07:57:10.888Z,1.80
2022-09-18T07:59:37.219Z,1.70
2022-09-18T08:02:04.999Z,1.30
2022-09-18T08:04:31.388Z,1.80
2022-09-18T08:07:03.447Z,1.60
2022-09-18T08:09:29.766Z,2.00
2022-09-18T08:11:56.238Z,1.17
2022-09-18T08:14:26.656Z,1.80
2022-09-18T08:16:55.073Z,1.80
2022-09-18T08:19:21.363Z,1.70
2022-09-18T08:21:47.578Z,1.40
2022-09-18T08:24:13.807Z,1.97
2022-09-18T08:26:40.196Z,1.60
2022-09-18T08:29:06.804Z,1.60
2022-09-18T08:31:33.238Z,2.03
2022-09-18T08:33:59.600Z,1.87
2022-09-18T08:36:25.859Z,1.80
2022-09-18T08:38:52.862Z,1.33
2022-09-18T08:41:24.975Z,1.70
2022-09-18T08:44:05.647Z,2.00
2022-09-18T08:46:43.507Z,1.50
2022-09-18T08:49:21.091Z,1.97
2022-09-18T08:52:23.317Z,1.50
2022-09-18T08:55:08.201Z,1.70
2022-09-18T08:57:36.993Z,1.60
2022-09-18T09:00:10.034Z,1.40
2022-09-18T09:02:37.072Z,1.43
2022-09-18T09:05:06.559Z,1.90
2022-09-18T09:07:43.121Z,1.50
2022-09-18T09:10:12.220Z,1.50
2022-09-18T09:12:57.531Z,1.37
2022-09-18T09:15:23.804Z,1.60
2022-09-18T09:17:59.964Z,1.40
2022-09-18T09:20:28.931Z,1.50
2022-09-18T09:23:00.652Z,1.50
2022-09-18T09:25:31.795Z,1.30
2022-09-18T09:28:14.493Z,1.23
2022-09-18T09:30:44.288Z,1.30
2022-09-18T09:33:20.350Z,1.40
2022-09-18T09:35:48.687Z,1.40
2022-09-18T09:38:33.878Z,1.40
2022-09-18T09:41:07.121Z,1.50
2022-09-18T09:43:44.544Z,1.20
2022-09-18T09:46:18.082Z,1.20
2022-09-18T09:48:50.606Z,1.23
2022-09-18T09:51:22.778Z,1.43
2022-09-18T09:53:49.536Z,1.30
2022-09-18T09:56:36.966Z,1.30
2022-09-18T09:59:38.900Z,1.10
2022-09-18T10:02:22.772Z,1.03
2022-09-18T10:04:54.661Z,1.50
2022-09-18T10:07:28.224Z,1.70
2022-09-18T10:09:59.799Z,1.30
2022-09-18T10:12:37.260Z,1.67
2022-09-18T10:15:15.813Z,1.20
2022-09-18T10:17:42.878Z,1.20
2022-09-18T10:20:15.018Z,1.60
2022-09-18T10:22:41.634Z,1.40
2022-09-18T10:25:14.936Z,1.40
2022-09-18T10:27:41.201Z,1.20
2022-09-18T10:30:12.548Z,1.30
2022-09-18T10:32:41.482Z,1.20
2022-09-18T10:35:26.295Z,1.30
2022-09-18T10:37:52.549Z,1.17
2022-09-18T10:40:29.203Z,1.30
2022-09-18T10:42:56.103Z,1.17
2022-09-18T10:45:24.803Z,1.40
2022-09-18T10:48:01.924Z,1.07
2022-09-18T10:50:31.302Z,1.43
2022-09-18T10:53:19.239Z,1.10
2022-09-18T10:55:52.692Z,1.40
2022-09-18T10:58:26.510Z,1.10
2022-09-18T11:00:56.408Z,1.40
2022-09-18T11:03:34.841Z,1.20
2022-09-18T11:06:02.784Z,1.20
2022-09-18T11:08:34.667Z,1.40
2022-09-18T11:11:05.790Z,1.60
2022-09-18T11:13:32.563Z,1.40
2022-09-18T11:15:59.896Z,1.30
2022-09-18T11:18:26.915Z,1.33
2022-09-18T11:20:55.195Z,1.27
2022-09-18T11:23:24.449Z,1.10
2022-09-18T11:26:08.971Z,1.00
2022-09-18T11:28:35.348Z,1.27
2022-09-18T11:31:12.902Z,0.80
2022-09-18T11:33:42.323Z,1.00
2022-09-18T11:36:10.875Z,1.00
2022-09-18T11:38:40.758Z,1.27
2022-09-18T11:41:07.184Z,0.90
2022-09-18T11:43:35.362Z,1.10
2022-09-18T11:46:21.622Z,1.20
2022-09-18T11:49:03.761Z,1.20
2022-09-18T11:51:41.737Z,1.10
2022-09-18T11:54:11.275Z,1.20
2022-09-18T11:56:40.608Z,1.50
2022-09-18T11:59:13.866Z,1.17
2022-09-18T12:01:42.460Z,1.53
2022-09-18T12:04:27.392Z,1.53
2022-09-18T12:06:58.827Z,1.20
2022-09-18T12:09:23.672Z,1.03
2022-09-18T12:11:56.330Z,1.17
2022-09-18T12:14:32.166Z,0.60
2022-09-18T12:17:20.047Z,0.80
2022-09-18T12:19:49.405Z,0.80
2022-09-18T12:22:18.319Z,0.63
2022-09-18T12:24:44.581Z,0.77
2022-09-18T12:27:16.663Z,0.97
2022-09-18T12:30:00.719Z,1.03
2022-09-18T12:32:32.766Z,0.90
2022-09-18T12:35:04.694Z,0.87
2022-09-18T12:37:46.848Z,1.00
2022-09-18T12:40:33.908Z,0.80
2022-09-18T12:43:19.032Z,0.80
2022-09-18T12:45:56.817Z,0.87
2022-09-18T12:48:32.229Z,1.20
2022-09-18T12:51:14.377Z,1.60
2022-09-18T12:54:06.713Z,1.30
2022-09-18T12:56:33.008Z,0.97
2022-09-18T12:59:09.777Z,1.10
2022-09-18T13:01:40.156Z,1.23
2022-09-18T13:04:16.462Z,0.60
2022-09-18T13:06:47.511Z,1.00
2022-09-18T13:09:23.866Z,0.63
2022-09-18T13:11:54.546Z,1.17
2022-09-18T13:14:24.516Z,1.07
2022-09-18T13:16:57.898Z,0.70
2022-09-18T13:19:30.477Z,0.90
2022-09-18T13:21:58.104Z,1.10
2022-09-18T13:24:34.185Z,0.90
2022-09-18T13:27:06.661Z,0.80
2022-09-18T13:30:02.186Z,0.80
2022-09-18T13:32:35.223Z,1.10
2022-09-18T13:35:07.804Z,1.10
2022-09-18T13:37:34.075Z,1.33
2022-09-18T13:40:17.120Z,0.70
2022-09-18T13:42:43.558Z,0.80
2022-09-18T13:45:12.611Z,0.70
2022-09-18T13:47:59.029Z,1.00
2022-09-18T13:50:25.315Z,0.90
2022-09-18T13:52:54.159Z,0.90
2022-09-18T13:55:22.035Z,0.70
2022-09-18T13:57:48.632Z,0.60
2022-09-18T14:00:20.788Z,0.80
2022-09-18T14:02:48.075Z,0.53
2022-09-18T14:05:28.461Z,0.60
2022-09-18T14:07:55.863Z,0.60
2022-09-18T14:10:26.963Z,0.70
2022-09-18T14:13:18.962Z,0.70
2022-09-18T14:15:51.279Z,0.70
2022-09-18T14:18:21.994Z,0.43
2022-09-18T14:20:50.200Z,0.50
2022-09-18T14:23:35.530Z,0.50
2022-09-18T14:26:02.836Z,0.70
2022-09-18T14:28:29.534Z,0.80
2022-09-18T14:31:14.617Z,0.80
2022-09-18T14:33:42.615Z,0.80
2022-09-18T14:36:14.550Z,0.87
2022-09-18T14:38:41.264Z,0.70
2022-09-18T14:41:19.556Z,0.80
2022-09-18T14:43:53.514Z,0.70
2022-09-18T14:46:20.842Z,0.63
2022-09-18T14:48:47.205Z,1.07
2022-09-18T14:51:18.874Z,0.90
2022-09-18T14:53:49.827Z,0.80
2022-09-18T14:56:18.053Z,0.90
2022-09-18T14:58:46.560Z,0.90
2022-09-18T15:01:17.958Z,0.77
2022-09-18T15:03:49.054Z,0.60
2022-09-18T15:06:15.834Z,0.97
2022-09-18T15:08:47.310Z,0.90
2022-09-18T15:11:14.403Z,0.90
2022-09-18T15:13:42.077Z,0.73
2022-09-18T15:16:16.730Z,1.23
2022-09-18T15:18:43.067Z,0.67
2022-09-18T15:21:24.323Z,0.90
2022-09-18T15:23:50.715Z,1.30
2022-09-18T15:26:17.288Z,0.77
2022-09-18T15:28:45.250Z,0.80
2022-09-18T15:31:20.700Z,0.60
2022-09-18T15:33:55.873Z,0.80
2022-09-18T15:36:24.656Z,0.97
2022-09-18T15:38:51.995Z,0.90
2022-09-18T15:41:22.450Z,0.53
2022-09-18T15:43:50.296Z,0.90
2022-09-18T15:46:30.019Z,0.83
2022-09-18T15:49:00.288Z,0.80
2022-09-18T15:51:28.146Z,0.70
2022-09-18T15:54:13.039Z,0.90
2022-09-18T15:56:48.515Z,0.90
2022-09-18T15:59:22.394Z,0.80
2022-09-18T16:01:48.849Z,1.00
2022-09-18T16:04:20.283Z,0.70
2022-09-18T16:06:51.681Z,0.90
2022-09-18T16:09:38.470Z,0.70
2022-09-18T16:12:23.812Z,0.80
2022-09-18T16:14:59.587Z,0.67
2022-09-18T16:17:29.412Z,1.00
2022-09-18T16:19:56.922Z,0.90
2022-09-18T16:22:30.838Z,0.80
2022-09-18T16:25:00.327Z,1.20
2022-09-18T16:27:26.684Z,0.70
2022-09-18T16:29:52.886Z,0.80
2022-09-18T16:32:21.759Z,0.70
2022-09-18T16:34:48.046Z,0.77
2022-09-18T16:37:15.339Z,1.00
2022-09-18T16:39:41.782Z,0.80
2022-09-18T16:42:14.252Z,0.90
2022-09-18T16:44:40.491Z,0.90
2022-09-18T16:47:09.474Z,0.80
2022-09-18T16:49:37.446Z,0.70
2022-09-18T16:52:03.987Z,1.10
2022-09-18T16:54:30.236Z,1.60
2022-09-18T16:56:58.525Z,1.40
2022-09-18T16:59:26.821Z,1.27
2022-09-18T17:02:03.743Z,0.80
2022-09-18T17:04:30.316Z,0.70
2022-09-18T17:06:56.722Z,0.80
2022-09-18T17:09:23.947Z,0.80
2022-09-18T17:11:50.623Z,1.07
2022-09-18T17:14:16.908Z,1.77
2022-09-18T17:16:44.896Z,2.07
2022-09-18T17:19:11.890Z,7.10
2022-09-18T17:21:38.992Z,1.70
2022-09-18T17:24:05.662Z,0.90
2022-09-18T17:26:32.069Z,1.13
2022-09-18T17:28:58.580Z,1.67
2022-09-18T17:31:26.369Z,1.17
2022-09-18T17:33:53.204Z,1.20
2022-09-18T17:36:19.544Z,1.20
2022-09-18T17:38:46.322Z,1.30
2022-09-18T17:41:14.630Z,1.40
2022-09-18T17:43:41.180Z,1.30
2022-09-18T17:46:08.851Z,1.70
2022-09-18T17:48:35.146Z,1.63
2022-09-18T17:51:03.121Z,1.70
2022-09-18T17:53:29.874Z,1.40
2022-09-18T17:55:59.003Z,1.40
2022-09-18T17:58:26.114Z,1.27
2022-09-18T18:00:52.426Z,1.30
2022-09-18T18:03:18.906Z,1.20
2022-09-18T18:05:51.917Z,1.10
2022-09-18T18:08:18.686Z,1.53
2022-09-18T18:10:45.297Z,1.07
2022-09-18T18:13:13.086Z,1.70
2022-09-18T18:15:39.686Z,1.30
2022-09-18T18:18:07.746Z,1.30
2022-09-18T18:20:34.065Z,1.00
2022-09-18T18:23:00.282Z,1.07
2022-09-18T18:25:26.991Z,1.37
2022-09-18T18:27:55.487Z,0.90
2022-09-18T18:30:24.051Z,1.20
2022-09-18T18:32:51.963Z,1.40
2022-09-18T18:35:19.562Z,1.27
2022-09-18T18:37:46.596Z,1.33
2022-09-18T18:40:13.523Z,1.37
2022-09-18T18:42:40.141Z,1.50
2022-09-18T18:45:07.259Z,1.90
2022-09-18T18:47:33.496Z,1.63
2022-09-18T18:49:59.787Z,1.33
2022-09-18T18:52:26.609Z,1.90
2022-09-18T18:54:52.855Z,1.70
2022-09-18T18:57:19.202Z,1.80
2022-09-18T18:59:45.478Z,1.83
2022-09-18T19:02:11.970Z,1.47
2022-09-18T19:04:40.263Z,1.43
2022-09-18T19:07:06.526Z,1.30
2022-09-18T19:09:33.625Z,1.50
2022-09-18T19:12:00.674Z,1.50
2022-09-18T19:14:31.488Z,1.23
2022-09-18T19:16:57.808Z,1.30
2022-09-18T19:19:24.924Z,1.23
2022-09-18T19:21:52.065Z,1.50
2022-09-18T19:24:18.625Z,1.50
2022-09-18T19:26:45.486Z,1.70
2022-09-18T19:29:13.025Z,1.10
2022-09-18T19:31:40.366Z,1.20
2022-09-18T19:34:13.760Z,1.57
2022-09-18T19:36:40.327Z,1.57
2022-09-18T19:39:07.254Z,1.30
2022-09-18T19:41:33.510Z,1.80
2022-09-18T19:44:02.568Z,1.20
2022-09-18T19:46:29.762Z,1.40
2022-09-18T19:48:56.380Z,1.43
2022-09-18T19:51:22.862Z,1.40
2022-09-18T19:53:49.278Z,1.47
2022-09-18T19:56:33.407Z,1.10
2022-09-18T19:59:01.986Z,1.20
2022-09-18T20:01:28.204Z,1.60
2022-09-18T20:03:54.922Z,1.50
2022-09-18T20:06:22.857Z,1.00
2022-09-18T20:08:49.957Z,1.00
2022-09-18T20:11:16.252Z,1.40
2022-09-18T20:13:42.635Z,1.33
2022-09-18T20:16:09.965Z,1.70
2022-09-18T20:18:36.713Z,1.30
2022-09-18T20:21:10.160Z,1.20
2022-09-18T20:23:36.821Z,1.23
2022-09-18T20:26:09.756Z,1.23
2022-09-18T20:28:36.316Z,1.63
2022-09-18T20:31:14.893Z,1.20
2022-09-18T20:33:41.187Z,1.10
2022-09-18T20:36:10.281Z,1.30
2022-09-18T20:38:40.747Z,2.00
2022-09-18T20:41:08.716Z,1.30
2022-09-18T20:43:35.800Z,1.10
2022-09-18T20:46:03.023Z,1.20
2022-09-18T20:48:36.785Z,1.40
2022-09-18T20:51:09.137Z,1.40
2022-09-18T20:53:38.198Z,1.40
2022-09-18T20:56:08.025Z,1.53
2022-09-18T20:58:35.106Z,1.30
2022-09-18T21:01:14.493Z,1.27
2022-09-18T21:03:41.903Z,1.20
2022-09-18T21:06:23.428Z,1.30
2022-09-18T21:08:53.217Z,1.23
2022-09-18T21:11:22.860Z,1.50
2022-09-18T21:13:51.470Z,1.40
2022-09-18T21:16:20.820Z,1.53
2022-09-18T21:18:48.087Z,1.30
2022-09-18T21:21:15.203Z,1.27
2022-09-18T21:23:53.609Z,1.47
2022-09-18T21:26:20.718Z,1.50
2022-09-18T21:28:54.391Z,1.50
2022-09-18T21:31:21.301Z,1.23
2022-09-18T21:33:53.610Z,1.60
2022-09-18T21:36:24.652Z,1.50
2022-09-18T21:38:51.630Z,1.60
2022-09-18T21:41:18.799Z,1.70
2022-09-18T21:43:48.115Z,1.80
2022-09-18T21:46:16.316Z,1.40
2022-09-18T21:48:43.442Z,1.60
2022-09-18T21:51:11.003Z,1.50
2022-09-18T21:53:41.201Z,1.40
2022-09-18T21:56:15.867Z,1.47
2022-09-18T21:58:44.917Z,1.93
2022-09-18T22:01:15.795Z,1.50
2022-09-18T22:03:46.869Z,1.63
2022-09-18T22:06:13.373Z,1.60
2022-09-18T22:08:41.125Z,1.43
2022-09-18T22:11:08.064Z,1.50
2022-09-18T22:13:34.348Z,1.50
2022-09-18T22:16:00.852Z,1.83
2022-09-18T22:18:27.162Z,1.60
2022-09-18T22:20:53.706Z,1.50
2022-09-18T22:23:19.930Z,1.20
2022-09-18T22:25:46.202Z,1.40
2022-09-18T22:28:12.431Z,1.77
2022-09-18T22:30:39.475Z,1.60
2022-09-18T22:33:05.987Z,1.40
2022-09-18T22:35:32.658Z,1.30
2022-09-18T22:37:58.996Z,1.53
2022-09-18T22:40:25.373Z,1.50
2022-09-18T22:42:51.660Z,1.60
2022-09-18T22:45:18.160Z,1.83
2022-09-18T22:47:44.378Z,1.60
2022-09-18T22:50:10.624Z,1.40
2022-09-18T22:52:37.798Z,1.50
2022-09-18T22:55:04.144Z,1.73
2022-09-18T22:57:30.982Z,2.00
2022-09-18T22:59:57.187Z,1.57
2022-09-18T23:02:23.598Z,1.40
2022-09-18T23:04:50.153Z,1.50
2022-09-18T23:07:17.796Z,1.37
2022-09-18T23:09:44.099Z,2.03
2022-09-18T23:12:10.306Z,1.70
2022-09-18T23:14:36.596Z,1.70
2022-09-18T23:17:02.968Z,1.60
2022-09-18T23:19:30.763Z,1.40
2022-09-18T23:21:57.086Z,1.80
2022-09-18T23:24:23.624Z,1.73
2022-09-18T23:26:51.026Z,1.80
2022-09-18T23:29:19.258Z,1.90
2022-09-18T23:31:46.471Z,1.70
2022-09-18T23:34:14.566Z,1.30
2022-09-18T23:36:44.664Z,1.70
2022-09-18T23:39:12.730Z,1.60
2022-09-18T23:41:39.387Z,1.53
2022-09-18T23:44:06.667Z,1.60
2022-09-18T23:46:33.171Z,1.50
2022-09-18T23:48:59.687Z,1.37
2022-09-18T23:51:30.480Z,1.60
2022-09-18T23:53:57.068Z,1.47
2022-09-18T23:56:23.842Z,1.40
2022-09-18T23:58:54.366Z,1.53
